Time;durP1;ratioP1;P1;durP2;ratioP2;P2;SDS_P1;SDS_P2;PMS_P1;PMS_P2;Temp;Humidity;BMP_temperature;BMP_pressure;BME280_temperature;BME280_humidity;BME280_pressure;Samples;Min_cycle;Max_cycle;Signal;HPM_P1;HPM_P2
2022/05/17 00:01:53;;;;;;;1.13;0.38;;;;;;;20.30;80.15;101112.44;4986895;28;20515;-67
2022/05/17 00:04:19;;;;;;;1.85;0.80;;;;;;;20.25;80.37;101110.16;4991384;28;20560;-67
2022/05/17 00:06:45;;;;;;;1.20;0.70;;;;;;;20.25;80.47;101112.88;4989830;28;20726;-68
2022/05/17 00:09:10;;;;;;;4.03;0.77;;;;;;;20.19;81.77;101115.28;4992450;28;20085;-69
2022/05/17 00:11:36;;;;;;;1.00;0.60;;;;;;;20.18;81.58;101107.47;4984368;28;20047;-69
2022/05/17 00:14:01;;;;;;;1.42;0.47;;;;;;;20.11;82.62;101102.09;4990483;28;20393;-68
2022/05/17 00:16:27;;;;;;;0.90;0.40;;;;;;;20.09;83.09;101093.53;4991319;28;20034;-68
2022/05/17 00:18:52;;;;;;;6.00;0.73;;;;;;;20.08;83.44;101100.16;5018889;22;20056;-64
2022/05/17 00:21:18;;;;;;;1.05;0.80;;;;;;;19.99;84.41;101108.09;4990902;28;20848;-63
2022/05/17 00:23:45;;;;;;;0.60;0.60;;;;;;;19.98;84.21;101095.56;5011136;28;20026;-64
2022/05/17 00:26:11;;;;;;;3.53;1.38;;;;;;;19.94;84.29;101098.34;5010242;28;20034;-64
2022/05/17 00:28:37;;;;;;;4.07;1.27;;;;;;;19.83;85.52;101099.66;4992877;28;20472;-63
2022/05/17 00:31:03;;;;;;;6.03;1.25;;;;;;;19.80;85.62;101093.81;5007687;28;20033;-62
2022/05/17 00:33:29;;;;;;;1.70;1.02;;;;;;;19.79;84.99;101091.50;4994343;28;20114;-63
2022/05/17 00:35:54;;;;;;;1.13;0.70;;;;;;;19.77;84.87;101102.84;5008570;28;20125;-64
2022/05/17 00:38:20;;;;;;;2.00;1.13;;;;;;;19.75;84.61;101105.19;5009304;28;20064;-64
2022/05/17 00:40:46;;;;;;;3.83;0.85;;;;;;;19.71;84.69;101109.13;5011941;28;20045;-63
2022/05/17 00:43:28;;;;;;;2.55;0.93;;;;;;;19.73;84.66;101106.78;4993848;28;20215;-63
2022/05/17 00:45:54;;;;;;;1.88;0.70;;;;;;;19.65;84.78;101102.56;5009038;28;20113;-63
2022/05/17 00:48:21;;;;;;;1.08;0.93;;;;;;;19.56;84.48;101103.03;5009840;28;20032;-63
2022/05/17 00:50:49;;;;;;;0.70;0.68;;;;;;;19.53;84.52;101109.31;5010313;28;20038;-63
2022/05/17 00:53:26;;;;;;;1.15;0.80;;;;;;;19.54;84.58;101121.81;5009219;28;20116;-64
2022/05/17 00:55:55;;;;;;;2.10;0.75;;;;;;;19.53;84.77;101103.09;5007619;28;20041;-63
2022/05/17 00:58:42;;;;;;;0.70;0.60;;;;;;;19.45;85.12;101116.00;5002705;28;20400;-64
2022/05/17 01:01:13;;;;;;;1.00;0.70;;;;;;;19.48;85.07;101114.44;5009190;28;20034;-64
2022/05/17 01:03:52;;;;;;;5.75;0.75;;;;;;;19.39;85.56;101105.94;5009067;28;20030;-64
2022/05/17 01:06:18;;;;;;;1.45;0.70;;;;;;;19.33;86.38;101100.13;5009472;28;20030;-64
2022/05/17 01:08:44;;;;;;;0.90;0.60;;;;;;;19.34;86.32;101107.13;4993125;28;20049;-63
2022/05/17 01:11:10;;;;;;;2.20;0.80;;;;;;;19.28;86.75;101086.09;5009723;28;20404;-64
2022/05/17 01:16:23;;;;;;;1.73;0.82;;;;;;;19.21;87.52;101086.91;5006407;28;20061;-63
2022/05/17 01:18:49;;;;;;;7.78;0.90;;;;;;;19.21;87.82;101094.34;5009422;28;20069;-63
2022/05/17 01:21:14;;;;;;;0.77;0.50;;;;;;;19.24;87.57;101107.19;5007798;28;20404;-63
2022/05/17 01:23:40;;;;;;;0.60;0.57;;;;;;;19.16;88.33;101097.50;5008296;28;20113;-62
2022/05/17 01:26:10;;;;;;;0.60;0.50;;;;;;;19.18;87.73;101093.16;5009263;28;20061;-63
2022/05/17 01:28:36;;;;;;;1.60;0.73;;;;;;;19.16;87.81;101095.56;5009933;28;20038;-63
2022/05/17 01:31:04;;;;;;;1.55;0.95;;;;;;;19.10;88.56;101097.16;5009048;28;20034;-63
2022/05/17 01:33:32;;;;;;;0.93;0.70;;;;;;;19.11;88.39;101095.97;5009375;28;20029;-63
2022/05/17 01:35:59;;;;;;;1.25;0.73;;;;;;;19.07;88.45;101097.16;5008904;28;20030;-63
2022/05/17 01:38:26;;;;;;;1.60;0.80;;;;;;;19.07;88.61;101100.66;5010380;28;20490;-63
2022/05/17 01:40:51;;;;;;;1.02;0.50;;;;;;;19.02;88.33;101098.38;4987637;28;20042;-62
2022/05/17 01:43:17;;;;;;;1.20;0.60;;;;;;;19.05;88.54;101105.00;5007613;28;20072;-63
2022/05/17 01:45:42;;;;;;;0.93;0.52;;;;;;;19.03;88.36;101094.47;5008624;28;20077;-64
2022/05/17 01:48:07;;;;;;;1.02;0.68;;;;;;;19.04;87.78;101104.22;5008338;28;20064;-64
2022/05/17 01:50:34;;;;;;;1.23;0.90;;;;;;;19.03;87.53;101102.66;5010527;28;20046;-63
2022/05/17 01:52:59;;;;;;;2.72;1.00;;;;;;;19.01;87.71;101102.28;5007448;28;20088;-63
2022/05/17 01:55:25;;;;;;;0.95;0.47;;;;;;;18.99;88.23;101101.13;5008513;28;20034;-64
2022/05/17 01:57:50;;;;;;;1.58;0.68;;;;;;;18.97;88.37;101092.56;4997894;28;20041;-63
2022/05/17 02:00:17;;;;;;;1.08;0.77;;;;;;;19.00;88.13;101073.44;5000501;28;20036;-63
2022/05/17 02:02:43;;;;;;;1.17;0.90;;;;;;;18.96;88.28;101094.53;5008421;28;20049;-64
2022/05/17 02:05:09;;;;;;;1.73;0.85;;;;;;;18.98;88.61;101091.38;5008634;28;20492;-64
2022/05/17 02:07:34;;;;;;;1.33;0.75;;;;;;;18.95;88.50;101101.13;5008045;28;20029;-64
2022/05/17 02:10:00;;;;;;;3.17;0.90;;;;;;;18.89;88.01;101097.31;5009319;28;20033;-64
2022/05/17 02:12:25;;;;;;;3.67;1.42;;;;;;;18.85;87.62;101100.03;5009458;28;20029;-64
2022/05/17 02:14:51;;;;;;;1.10;0.65;;;;;;;18.82;87.60;101100.06;4990991;28;20049;-63
2022/05/17 02:17:17;;;;;;;3.63;1.17;;;;;;;18.82;87.82;101102.78;5008711;28;20064;-64
2022/05/17 02:19:43;;;;;;;2.17;1.13;;;;;;;18.87;87.08;101102.38;5006438;28;20042;-63
2022/05/17 02:22:08;;;;;;;1.30;0.82;;;;;;;18.74;87.74;101107.53;5006606;28;20508;-63
2022/05/17 02:24:33;;;;;;;1.00;0.90;;;;;;;18.71;87.78;101113.00;5001003;28;20065;-64
2022/05/17 02:26:59;;;;;;;0.73;0.63;;;;;;;18.68;88.48;101102.88;4975352;28;20404;-64
2022/05/17 02:29:26;;;;;;;2.25;1.10;;;;;;;18.69;88.66;101109.91;5007725;28;20037;-63
2022/05/17 02:31:52;;;;;;;3.20;1.10;;;;;;;18.64;88.05;101108.34;5005831;28;20037;-64
2022/05/17 02:34:18;;;;;;;1.02;0.80;;;;;;;18.62;87.77;101112.66;4991083;28;20191;-64
2022/05/17 02:36:45;;;;;;;1.17;0.90;;;;;;;18.59;87.85;101110.72;4990619;28;20030;-64
2022/05/17 02:39:11;;;;;;;3.53;0.77;;;;;;;18.59;87.86;101110.72;5006908;28;20037;-63
2022/05/17 02:41:37;;;;;;;1.35;0.52;;;;;;;18.62;87.96;101107.22;5009267;28;20038;-64
2022/05/17 02:44:02;;;;;;;1.83;0.90;;;;;;;18.60;88.07;101113.03;5010293;28;20030;-64
2022/05/17 02:46:30;;;;;;;1.40;0.93;;;;;;;18.55;88.29;101108.00;5006989;28;20050;-63
2022/05/17 02:48:55;;;;;;;1.00;0.90;;;;;;;18.51;88.45;101103.75;5008242;28;20099;-64
2022/05/17 02:51:22;;;;;;;2.85;1.00;;;;;;;18.49;88.17;101100.63;5007604;28;20042;-63
2022/05/17 02:53:48;;;;;;;1.83;1.23;;;;;;;18.48;88.29;101101.81;5010232;28;20451;-64
2022/05/17 02:56:13;;;;;;;1.38;0.90;;;;;;;18.47;88.49;101103.75;5007919;28;20029;-63
2022/05/17 02:58:39;;;;;;;2.28;0.98;;;;;;;18.42;88.51;101101.47;5011851;28;20028;-64
2022/05/17 03:01:06;;;;;;;1.85;1.27;;;;;;;18.41;89.59;101101.81;5006296;28;20521;-64
2022/05/17 03:03:32;;;;;;;1.05;0.77;;;;;;;18.44;89.31;101106.50;5010489;28;20366;-63
2022/05/17 03:05:59;;;;;;;1.10;0.63;;;;;;;18.43;89.09;101100.28;5009735;28;20042;-64
2022/05/17 03:08:24;;;;;;;1.45;0.60;;;;;;;18.36;89.11;101105.75;4992160;28;20092;-64
2022/05/17 03:10:50;;;;;;;3.75;0.95;;;;;;;18.32;89.78;101106.91;5009061;28;20145;-63
2022/05/17 03:13:15;;;;;;;2.55;0.85;;;;;;;18.21;90.63;101103.47;5009210;28;20030;-64
2022/05/17 03:15:42;;;;;;;1.42;0.57;;;;;;;18.17;91.59;101099.97;5009312;28;20034;-64
2022/05/17 03:18:08;;;;;;;1.05;0.80;;;;;;;18.27;91.29;101115.50;5006298;28;20091;-63
2022/05/17 03:20:34;;;;;;;2.90;1.17;;;;;;;18.30;91.38;101117.44;5010864;28;20107;-63
2022/05/17 03:22:59;;;;;;;1.02;0.70;;;;;;;18.31;90.64;101111.59;5011797;28;20480;-63
2022/05/17 03:25:25;;;;;;;1.15;0.95;;;;;;;18.32;90.36;101115.88;5011359;28;20034;-65
2022/05/17 03:27:51;;;;;;;3.08;0.88;;;;;;;18.23;91.18;101126.44;5013647;28;20076;-63
2022/05/17 03:30:17;;;;;;;2.25;1.13;;;;;;;18.24;90.44;101119.81;5011700;28;20758;-64
2022/05/17 03:32:42;;;;;;;0.93;0.88;;;;;;;18.21;90.97;101117.88;5012528;28;20030;-63
2022/05/17 03:35:09;;;;;;;1.75;0.80;;;;;;;18.25;91.51;101132.28;5006515;28;20618;-64
2022/05/17 03:37:35;;;;;;;0.73;0.57;;;;;;;18.18;92.10;101129.56;4991627;28;20048;-64
2022/05/17 03:40:00;;;;;;;1.70;1.00;;;;;;;18.20;92.40;101134.59;4993220;28;20627;-59
2022/05/17 03:42:26;;;;;;;1.85;1.00;;;;;;;18.21;92.63;101138.91;5012124;28;20116;-59
2022/05/17 03:44:51;;;;;;;2.75;1.10;;;;;;;18.19;92.53;101133.84;5012709;28;20050;-62
2022/05/17 03:47:17;;;;;;;1.30;0.95;;;;;;;18.19;92.71;101141.25;5009548;28;20034;-65
2022/05/17 03:49:44;;;;;;;0.82;0.80;;;;;;;18.18;93.39;101137.75;5011360;28;20044;-63
2022/05/17 03:52:09;;;;;;;2.42;1.05;;;;;;;18.20;93.38;101142.78;5011513;28;20038;-64
2022/05/17 03:54:36;;;;;;;1.05;0.80;;;;;;;18.23;92.74;101142.03;5012804;28;20068;-63
2022/05/17 03:57:02;;;;;;;1.65;0.60;;;;;;;18.21;93.06;101145.16;5007724;28;20038;-63
2022/05/17 03:59:27;;;;;;;3.85;1.40;;;;;;;18.18;94.08;101145.13;5012065;28;20519;-63
2022/05/17 04:01:53;;;;;;;2.60;1.08;;;;;;;18.12;94.63;101152.19;5012695;28;20117;-63
2022/05/17 04:04:18;;;;;;;2.00;1.10;;;;;;;18.15;94.37;101152.16;5010201;28;20034;-63
2022/05/17 04:06:44;;;;;;;0.60;0.60;;;;;;;18.17;94.51;101151.78;5011647;28;20042;-64
2022/05/17 04:09:13;;;;;;;1.98;0.85;;;;;;;18.20;94.42;101159.16;5012231;28;20089;-64
2022/05/17 04:11:39;;;;;;;1.25;0.80;;;;;;;18.27;93.85;101149.03;4989904;28;20053;-62
2022/05/17 04:14:06;;;;;;;3.30;1.00;;;;;;;18.25;93.52;101150.59;4990844;28;20121;-63
2022/05/17 04:16:34;;;;;;;1.85;1.00;;;;;;;18.28;93.51;101147.84;4991184;28;20578;-63
2022/05/17 04:18:59;;;;;;;1.05;0.77;;;;;;;18.30;93.36;101150.16;5003471;28;20258;-62
2022/05/17 04:21:25;;;;;;;3.35;1.55;;;;;;;18.17;94.50;101152.56;5010557;28;20034;-64
2022/05/17 04:23:51;;;;;;;1.73;1.05;;;;;;;18.17;94.75;101149.81;5011940;28;20124;-64
2022/05/17 04:26:18;;;;;;;1.10;0.98;;;;;;;18.23;94.02;101144.75;5000108;28;20121;-63
2022/05/17 04:28:43;;;;;;;1.10;1.00;;;;;;;18.25;93.68;101147.84;5007879;28;20042;-63
2022/05/17 04:31:10;;;;;;;2.28;1.00;;;;;;;18.13;95.20;101153.72;5009768;28;20091;-63
2022/05/17 04:33:36;;;;;;;1.45;1.17;;;;;;;18.17;95.37;101149.03;5009271;28;20484;-63
2022/05/17 04:36:02;;;;;;;1.23;0.88;;;;;;;18.11;95.31;101145.16;5011170;28;20038;-63
2022/05/17 04:38:28;;;;;;;1.98;1.23;;;;;;;18.13;95.73;101148.28;5012074;28;20041;-64
2022/05/17 04:40:53;;;;;;;2.45;1.08;;;;;;;18.11;95.26;101145.16;5010479;28;20118;-65
2022/05/17 04:43:22;;;;;;;1.20;0.98;;;;;;;18.08;96.06;101162.31;4987721;28;20192;-64
2022/05/17 04:45:48;;;;;;;2.08;0.93;;;;;;;18.14;95.66;101153.31;5008080;28;20037;-63
2022/05/17 04:48:15;;;;;;;3.60;1.02;;;;;;;18.11;95.96;101162.31;5011778;28;20511;-63
2022/05/17 04:50:40;;;;;;;2.10;0.90;;;;;;;18.12;96.02;101146.72;5010598;28;20614;-64
2022/05/17 04:53:07;;;;;;;1.58;1.00;;;;;;;18.09;96.31;101147.50;5008567;28;20049;-63
2022/05/17 04:55:36;;;;;;;8.05;1.13;;;;;;;18.07;96.74;101145.19;5009268;28;20049;-60
2022/05/17 04:58:02;;;;;;;2.10;1.30;;;;;;;18.10;96.76;101157.25;4991466;28;20505;-63
2022/05/17 05:00:27;;;;;;;2.05;1.23;;;;;;;18.09;97.00;101163.84;5017250;28;20120;-65
2022/05/17 05:02:55;;;;;;;1.88;1.08;;;;;;;18.12;97.17;101160.38;5005983;28;20389;-63
2022/05/17 05:05:22;;;;;;;2.08;1.27;;;;;;;18.13;97.13;101167.34;5012093;28;20030;-63
2022/05/17 05:07:49;;;;;;;2.90;1.20;;;;;;;18.12;97.40;101168.53;4991400;28;20121;-65
2022/05/17 05:10:15;;;;;;;4.22;0.65;;;;;;;18.14;97.17;101163.47;5010544;28;20084;-64
2022/05/17 05:12:40;;;;;;;2.67;1.10;;;;;;;18.17;96.90;101170.84;5009530;28;20405;-64
2022/05/17 05:15:06;;;;;;;3.35;1.38;;;;;;;18.18;97.33;101173.19;5002660;28;20069;-65
2022/05/17 05:17:34;;;;;;;1.52;1.30;;;;;;;18.20;96.83;101173.56;5007077;28;20125;-65
2022/05/17 05:20:00;;;;;;;2.75;1.30;;;;;;;18.17;97.14;101170.84;4999913;28;20044;-64
2022/05/17 05:22:26;;;;;;;3.08;1.08;;;;;;;18.14;97.41;101174.38;4978730;28;20404;-64
2022/05/17 05:24:52;;;;;;;1.30;1.20;;;;;;;18.19;96.77;101179.44;5002477;28;20046;-62
2022/05/17 05:27:18;;;;;;;2.42;1.52;;;;;;;18.11;97.34;101194.25;5005316;28;20087;-64
2022/05/17 05:29:43;;;;;;;1.92;1.20;;;;;;;18.08;97.93;101190.34;5010259;28;20041;-63
2022/05/17 05:32:09;;;;;;;3.13;1.20;;;;;;;18.08;98.38;101193.06;5005471;28;20048;-62
2022/05/17 05:34:35;;;;;;;2.28;1.30;;;;;;;18.12;98.40;101201.25;5005734;28;20034;-61
2022/05/17 05:37:00;;;;;;;1.75;0.90;;;;;;;18.14;98.43;101196.19;5009634;28;20427;-61
2022/05/17 05:39:26;;;;;;;2.17;1.30;;;;;;;18.22;97.66;101195.00;5005874;28;20037;-62
2022/05/17 05:41:52;;;;;;;1.45;1.15;;;;;;;18.16;97.72;101188.38;5018487;28;20033;-63
2022/05/17 05:44:19;;;;;;;2.67;1.30;;;;;;;18.08;98.48;101192.31;4997156;28;20026;-61
2022/05/17 05:46:44;;;;;;;2.03;1.13;;;;;;;18.20;98.16;101191.88;5013185;28;20041;-62
2022/05/17 05:49:12;;;;;;;2.38;1.45;;;;;;;18.24;97.88;101206.28;5006886;28;20064;-62
2022/05/17 05:51:37;;;;;;;1.75;1.25;;;;;;;18.19;97.43;101203.97;5005882;28;20073;-64
2022/05/17 05:54:03;;;;;;;2.78;1.80;;;;;;;18.17;97.38;101209.03;5007479;28;20087;-62
2022/05/17 05:56:29;;;;;;;4.82;1.38;;;;;;;18.15;98.26;101208.66;5005412;28;21661;-63
2022/05/17 05:58:55;;;;;;;2.33;1.38;;;;;;;18.14;98.68;101207.09;4996594;28;20088;-62
2022/05/17 06:01:21;;;;;;;2.10;1.25;;;;;;;18.12;98.57;101209.44;5009916;28;20030;-62
2022/05/17 06:03:47;;;;;;;6.13;1.55;;;;;;;18.11;99.03;101210.59;5001168;28;20200;-63
2022/05/17 06:06:14;;;;;;;1.58;1.13;;;;;;;18.19;98.17;101206.69;5018542;28;20046;-63
2022/05/17 06:08:40;;;;;;;2.33;1.45;;;;;;;18.18;98.17;101210.56;5018595;28;20017;-61
2022/05/17 06:11:05;;;;;;;3.63;1.35;;;;;;;18.19;98.57;101209.41;5011625;28;20060;-62
2022/05/17 06:13:31;;;;;;;2.25;1.38;;;;;;;18.13;98.52;101210.97;5003703;28;20033;-63
2022/05/17 06:15:57;;;;;;;3.10;1.40;;;;;;;18.12;98.51;101214.91;5018339;28;20484;-61
2022/05/17 06:18:22;;;;;;;2.10;1.20;;;;;;;18.06;99.41;101213.72;5023029;22;20026;-66
2022/05/17 06:20:50;;;;;;;3.25;1.20;;;;;;;18.09;99.47;101212.94;5028234;28;20056;-67
2022/05/17 06:23:15;;;;;;;1.35;1.05;;;;;;;18.10;99.05;101219.97;5027173;28;20033;-67
2022/05/17 06:25:41;;;;;;;2.55;1.67;;;;;;;18.08;99.84;101219.56;5031304;28;20045;-67
2022/05/17 06:28:06;;;;;;;2.90;1.70;;;;;;;18.10;100.00;101222.69;5010494;28;20033;-67
2022/05/17 06:30:31;;;;;;;2.75;1.38;;;;;;;18.12;100.00;101212.91;5033049;28;20045;-67
2022/05/17 06:33:01;;;;;;;4.25;1.55;;;;;;;18.10;100.00;101219.97;5021480;28;20612;-67
2022/05/17 06:35:26;;;;;;;2.58;1.80;;;;;;;18.14;100.00;101223.47;5025464;28;20045;-68
2022/05/17 06:37:52;;;;;;;4.05;1.77;;;;;;;18.20;100.00;101230.03;5027232;28;20400;-67
2022/05/17 06:40:18;;;;;;;5.80;1.88;;;;;;;18.18;100.00;101229.66;5021122;28;20399;-67
2022/05/17 06:42:44;;;;;;;3.30;1.65;;;;;;;18.21;100.00;101228.91;5022387;28;20479;-66
2022/05/17 06:45:11;;;;;;;3.33;1.83;;;;;;;18.23;99.95;101221.88;5017692;28;20102;-67
2022/05/17 06:47:37;;;;;;;2.30;1.25;;;;;;;18.20;100.00;101238.22;5042571;28;20120;-70
2022/05/17 06:50:03;;;;;;;4.32;1.95;;;;;;;18.17;100.00;101236.28;5012648;28;20026;-67
2022/05/17 06:52:29;;;;;;;3.47;1.60;;;;;;;18.14;100.00;101237.09;5030892;28;20045;-67
2022/05/17 06:54:57;;;;;;;2.30;1.48;;;;;;;18.16;100.00;101238.25;5041526;28;20483;-67
2022/05/17 06:57:23;;;;;;;3.60;1.30;;;;;;;18.15;100.00;101249.53;5033028;28;20025;-67
2022/05/17 06:59:49;;;;;;;3.05;1.80;;;;;;;18.16;100.00;101248.34;5024188;28;20041;-67
2022/05/17 07:02:15;;;;;;;3.17;1.67;;;;;;;18.20;100.00;101240.94;5000087;28;20045;-69
2022/05/17 07:04:42;;;;;;;3.17;1.55;;;;;;;18.24;100.00;101252.63;5024170;28;20068;-67
2022/05/17 07:07:08;;;;;;;5.63;2.40;;;;;;;18.28;100.00;101250.69;5006457;28;20488;-67
2022/05/17 07:09:35;;;;;;;3.88;1.85;;;;;;;18.28;100.00;101256.94;5003492;28;20041;-66
2022/05/17 07:14:45;;;;;;;3.47;2.00;;;;;;;18.34;100.00;101260.03;5013233;28;20033;-66
2022/05/17 07:17:17;;;;;;;3.40;1.73;;;;;;;18.39;100.00;101260.41;5027756;28;20041;-67
2022/05/17 07:19:43;;;;;;;3.33;1.60;;;;;;;18.36;100.00;101263.94;5024282;28;20204;-67
2022/05/17 07:22:10;;;;;;;6.38;1.73;;;;;;;18.39;100.00;101254.19;5023619;28;20059;-67
2022/05/17 07:24:36;;;;;;;6.57;2.28;;;;;;;18.36;100.00;101258.47;5005172;28;20351;-67
2022/05/17 07:27:03;;;;;;;7.47;1.73;;;;;;;18.40;100.00;101261.19;5004422;28;20041;-67
2022/05/17 07:29:29;;;;;;;3.00;1.90;;;;;;;18.40;100.00;101261.97;5027873;28;20031;-67
2022/05/17 07:31:54;;;;;;;4.43;2.28;;;;;;;18.39;100.00;101260.41;5005382;28;20476;-66
2022/05/17 07:34:19;;;;;;;5.05;2.42;;;;;;;18.40;100.00;101259.25;5013238;28;20038;-67
2022/05/17 07:36:45;;;;;;;4.03;1.83;;;;;;;18.42;100.00;101270.59;5014987;28;20055;-67
2022/05/17 07:39:12;;;;;;;6.47;2.40;;;;;;;18.52;100.00;101269.78;5035676;28;20065;-67
2022/05/17 07:41:37;;;;;;;4.90;2.30;;;;;;;18.56;100.00;101269.78;5018190;28;20044;-67
2022/05/17 07:44:04;;;;;;;3.92;1.63;;;;;;;18.50;100.00;101266.69;5023320;28;20021;-66
2022/05/17 07:46:30;;;;;;;5.40;2.30;;;;;;;18.51;100.00;101270.94;5036559;28;20041;-66
2022/05/17 07:48:56;;;;;;;3.67;2.20;;;;;;;18.50;100.00;101277.59;5032190;28;20064;-66
2022/05/17 07:51:21;;;;;;;4.60;1.90;;;;;;;18.57;100.00;101265.84;5033564;28;20138;-66
2022/05/17 07:53:47;;;;;;;3.75;1.95;;;;;;;18.60;100.00;101276.75;5037398;28;20039;-67
2022/05/17 07:56:14;;;;;;;4.70;2.03;;;;;;;18.61;100.00;101272.88;5042833;28;20319;-66
2022/05/17 07:58:39;;;;;;;5.55;2.08;;;;;;;18.63;100.00;101281.44;5022757;28;20484;-66
2022/05/17 08:01:05;;;;;;;4.07;2.10;;;;;;;18.65;100.00;101276.38;5041345;28;20037;-66
2022/05/17 08:03:31;;;;;;;3.17;1.55;;;;;;;18.77;100.00;101280.63;5041234;28;20029;-65
2022/05/17 08:05:57;;;;;;;10.32;2.63;;;;;;;18.78;100.00;101296.59;5035808;28;20045;-66
2022/05/17 08:08:22;;;;;;;4.30;2.17;;;;;;;18.86;100.00;101286.44;5037841;28;20033;-66
2022/05/17 08:10:48;;;;;;;5.50;2.15;;;;;;;18.94;100.00;101290.72;5034008;28;20042;-66
2022/05/17 08:13:15;;;;;;;4.72;2.15;;;;;;;19.00;100.00;101294.59;5032022;28;20032;-66
2022/05/17 08:15:40;;;;;;;6.07;2.13;;;;;;;19.05;100.00;101301.59;5031101;28;20044;-67
2022/05/17 08:18:06;;;;;;;4.35;2.08;;;;;;;19.11;100.00;101306.25;5042988;28;20127;-67
2022/05/17 08:20:32;;;;;;;3.00;1.30;;;;;;;19.17;100.00;101301.16;5039981;28;20095;-66
2022/05/17 08:22:59;;;;;;;2.85;1.30;;;;;;;19.27;100.00;101306.56;5013506;28;20034;-67
2022/05/17 08:28:25;;;;;;;1.52;1.15;;;;;;;19.41;100.00;101309.28;4980335;28;20043;-67
2022/05/17 08:30:51;;;;;;;1.98;1.30;;;;;;;19.50;100.00;101314.28;5028336;28;20542;-67
2022/05/17 08:33:19;;;;;;;1.42;0.98;;;;;;;19.58;100.00;101313.06;5017744;28;20037;-67
2022/05/17 08:35:52;;;;;;;3.53;1.55;;;;;;;19.68;100.00;101315.75;5040035;28;20063;-67
2022/05/17 08:38:27;;;;;;;1.58;0.98;;;;;;;19.79;100.00;101310.19;5032812;28;20027;-67
2022/05/17 08:40:55;;;;;;;2.15;1.08;;;;;;;19.88;100.00;101315.22;5025785;28;20438;-67
2022/05/17 08:43:49;;;;;;;1.73;1.15;;;;;;;19.97;100.00;101326.50;5038009;28;20067;-67
2022/05/17 08:46:33;;;;;;;1.73;1.40;;;;;;;19.97;100.00;101327.28;5035864;28;20063;-67
2022/05/17 08:49:12;;;;;;;2.60;1.48;;;;;;;20.02;100.00;101326.84;5015832;28;20947;-67
2022/05/17 08:51:43;;;;;;;2.35;1.42;;;;;;;20.16;100.00;101329.47;5026898;28;20064;-67
2022/05/17 08:54:14;;;;;;;3.75;1.95;;;;;;;20.24;100.00;101325.53;5042703;28;20037;-67
2022/05/17 08:56:47;;;;;;;3.08;1.60;;;;;;;20.30;100.00;101328.59;5026488;28;20033;-67
2022/05/17 08:59:17;;;;;;;1.88;1.17;;;;;;;20.32;100.00;101337.97;5014468;28;20427;-67
2022/05/17 09:01:53;;;;;;;3.47;1.38;;;;;;;20.26;100.00;101339.59;5040184;28;20059;-67
2022/05/17 09:04:34;;;;;;;2.97;1.67;;;;;;;20.25;100.00;101334.50;5024114;28;20035;-67
2022/05/17 09:07:24;;;;;;;2.17;1.10;;;;;;;20.32;100.00;101345.41;5018255;28;20041;-67
2022/05/17 09:10:02;;;;;;;3.40;1.65;;;;;;;20.49;100.00;101337.03;5036770;28;20036;-67
2022/05/17 09:12:48;;;;;;;3.47;1.67;;;;;;;20.79;100.00;101347.28;5020260;28;20036;-67
2022/05/17 09:15:16;;;;;;;3.30;1.85;;;;;;;21.11;100.00;101342.28;5036091;28;20246;-67
2022/05/17 09:17:43;;;;;;;3.53;1.60;;;;;;;21.38;99.07;101345.84;5028551;28;20075;-67
2022/05/17 09:20:15;;;;;;;2.97;1.27;;;;;;;21.51;97.32;101343.31;5031371;28;20072;-67
2022/05/17 09:22:41;;;;;;;2.83;1.25;;;;;;;21.51;96.23;101341.38;5037149;28;20037;-67
2022/05/17 09:25:45;;;;;;;1.35;1.02;;;;;;;21.52;96.27;101340.16;5030081;28;20048;-67
2022/05/17 09:28:16;;;;;;;2.40;1.27;;;;;;;21.68;95.25;101344.28;5021183;28;20119;-67
2022/05/17 09:30:42;;;;;;;1.98;1.25;;;;;;;21.74;94.48;101350.88;5036120;28;20037;-66
2022/05/17 09:33:15;;;;;;;4.40;1.50;;;;;;;21.90;94.97;101337.31;5044610;28;20033;-66
2022/05/17 09:35:55;;;;;;;3.33;1.23;;;;;;;22.00;92.84;101350.88;5035376;28;20128;-67
2022/05/17 09:38:21;;;;;;;1.77;0.95;;;;;;;22.18;92.47;101347.88;5031833;28;20041;-67
2022/05/17 09:40:49;;;;;;;2.22;1.00;;;;;;;22.28;92.34;101349.63;5019797;28;20044;-66
2022/05/17 09:43:18;;;;;;;2.90;1.38;;;;;;;22.49;91.17;101351.28;5027424;28;20079;-67
2022/05/17 09:45:45;;;;;;;2.70;1.45;;;;;;;22.44;90.52;101349.78;5042273;28;20029;-66
2022/05/17 09:48:13;;;;;;;1.98;1.13;;;;;;;22.52;90.64;101359.44;5037320;28;20041;-66
2022/05/17 09:53:51;;;;;;;1.92;1.00;;;;;;;22.83;88.90;101360.09;5018890;28;20041;-66
2022/05/17 09:56:25;;;;;;;3.70;1.70;;;;;;;22.89;88.40;101361.94;5035682;28;20043;-66
2022/05/17 09:58:50;;;;;;;1.40;0.98;;;;;;;22.85;86.51;101360.44;5024450;28;20033;-66
2022/05/17 10:01:20;;;;;;;1.83;0.95;;;;;;;22.77;86.24;101357.06;5033593;28;20387;-66
2022/05/17 10:04:09;;;;;;;2.15;1.13;;;;;;;22.98;87.64;101359.41;5038936;28;20040;-66
2022/05/17 10:06:42;;;;;;;1.70;0.98;;;;;;;23.21;87.80;101375.03;5030822;28;20032;-66
2022/05/17 10:09:13;;;;;;;2.08;1.05;;;;;;;23.38;87.68;101373.97;5037747;28;20415;-66
2022/05/17 10:12:08;;;;;;;2.03;0.73;;;;;;;23.51;86.16;101377.59;5040383;28;20033;-66
2022/05/17 10:14:40;;;;;;;2.22;0.98;;;;;;;23.62;84.29;101377.38;4973813;28;20395;-66
2022/05/17 10:17:35;;;;;;;1.48;0.80;;;;;;;23.43;82.34;101372.66;5035679;28;20040;-66
2022/05/17 10:20:04;;;;;;;2.33;0.75;;;;;;;23.32;83.95;101374.88;5032017;28;20068;-66
2022/05/17 10:23:00;;;;;;;0.63;0.57;;;;;;;23.18;84.65;101368.44;5041335;28;20043;-66
2022/05/17 10:25:35;;;;;;;0.77;0.40;;;;;;;23.20;83.42;101379.78;5033405;28;20099;-66
2022/05/17 10:28:14;;;;;;;0.93;0.55;;;;;;;23.07;82.66;101378.84;5030916;28;20033;-66
2022/05/17 10:30:48;;;;;;;2.72;0.45;;;;;;;23.14;83.86;101373.22;5024573;28;20083;-66
2022/05/17 10:33:19;;;;;;;0.65;0.57;;;;;;;23.07;84.83;101384.34;5024189;28;20056;-66
2022/05/17 10:35:55;;;;;;;0.60;0.60;;;;;;;23.17;84.93;101383.38;5041812;28;20044;-66
2022/05/17 10:38:25;;;;;;;1.95;0.90;;;;;;;23.19;84.41;101380.19;5042598;28;20373;-66
2022/05/17 10:40:53;;;;;;;1.70;0.60;;;;;;;23.34;83.99;101383.47;5022511;28;20049;-66
2022/05/17 10:43:40;;;;;;;1.23;0.65;;;;;;;23.44;82.92;101391.50;5017296;28;20095;-66
2022/05/17 10:46:11;;;;;;;2.83;0.75;;;;;;;23.54;81.50;101382.25;5036175;28;20362;-66
2022/05/17 10:48:49;;;;;;;1.10;0.70;;;;;;;23.77;81.75;101375.88;5015113;28;20445;-66
2022/05/17 10:51:49;;;;;;;0.77;0.52;;;;;;;24.20;81.31;101390.22;5029103;28;20033;-67
2022/05/17 10:54:32;;;;;;;3.30;0.70;;;;;;;24.25;78.14;101381.47;5009744;28;20481;-66
2022/05/17 10:57:25;;;;;;;1.10;1.00;;;;;;;24.33;77.48;101390.31;5009399;28;20034;-66
2022/05/17 11:00:09;;;;;;;0.90;0.60;;;;;;;24.18;77.65;101395.38;5026450;28;20045;-66
2022/05/17 11:02:38;;;;;;;0.82;0.55;;;;;;;24.27;78.54;101389.28;5029492;28;20041;-66
2022/05/17 11:05:28;;;;;;;0.98;0.68;;;;;;;24.48;77.95;101395.06;5027644;28;20248;-66
2022/05/17 11:08:19;;;;;;;1.38;0.70;;;;;;;24.60;78.14;101394.34;5014492;28;20039;-66
2022/05/17 11:11:03;;;;;;;2.45;0.80;;;;;;;24.72;76.32;101390.91;5027086;28;20040;-66
2022/05/17 11:13:40;;;;;;;1.17;0.50;;;;;;;24.69;74.55;101396.47;5034168;28;20025;-66
2022/05/17 11:16:20;;;;;;;0.77;0.52;;;;;;;24.43;72.91;101398.31;5018177;28;20033;-67
2022/05/17 11:18:56;;;;;;;1.30;0.85;;;;;;;24.28;70.74;101399.88;5017234;28;20037;-66
2022/05/17 11:21:33;;;;;;;1.75;0.63;;;;;;;24.05;71.43;101398.06;5013504;28;20116;-67
2022/05/17 11:24:24;;;;;;;1.38;0.80;;;;;;;23.90;73.64;101394.06;5018203;28;20398;-66
2022/05/17 11:27:01;;;;;;;3.40;0.80;;;;;;;23.75;74.63;101387.28;5017061;28;20037;-66
2022/05/17 11:29:30;;;;;;;1.00;0.75;;;;;;;23.71;74.71;101391.34;5003523;28;20045;-66
2022/05/17 11:32:01;;;;;;;1.38;0.77;;;;;;;23.66;74.23;101408.31;5016200;28;20037;-66
2022/05/17 11:34:30;;;;;;;1.55;0.70;;;;;;;23.62;75.64;101399.38;5025085;28;20056;-66
2022/05/17 11:37:08;;;;;;;0.85;0.65;;;;;;;23.67;76.26;101390.63;5017093;28;20093;-66
2022/05/17 11:39:41;;;;;;;1.15;0.80;;;;;;;23.69;75.51;101393.75;5033182;28;20493;-66
2022/05/17 11:42:29;;;;;;;1.95;0.90;;;;;;;23.62;75.79;101402.13;5047403;28;20040;-66
2022/05/17 11:45:15;;;;;;;1.33;0.93;;;;;;;23.59;76.11;101395.53;5032195;28;20033;-66